sensor_id;sensor_type;location;lat;lon;timestamp;temperature;humidity
31129;DHT22;17777;48.770;8.944;2023-04-24T00:01:26;17.50;47.50
31129;DHT22;17777;48.770;8.944;2023-04-24T00:03:52;17.50;47.50
31129;DHT22;17777;48.770;8.944;2023-04-24T00:06:17;17.50;47.50
31129;DHT22;17777;48.770;8.944;2023-04-24T00:08:43;17.50;47.50
31129;DHT22;17777;48.770;8.944;2023-04-24T00:11:09;17.50;47.50
31129;DHT22;17777;48.770;8.944;2023-04-24T00:13:37;17.60;47.70
31129;DHT22;17777;48.770;8.944;2023-04-24T00:16:03;17.60;47.70
31129;DHT22;17777;48.770;8.944;2023-04-24T00:18:29;17.50;47.50
31129;DHT22;17777;48.770;8.944;2023-04-24T00:20:55;17.50;47.50
31129;DHT22;17777;48.770;8.944;2023-04-24T00:23:20;17.50;47.50
31129;DHT22;17777;48.770;8.944;2023-04-24T00:25:46;17.50;47.50
31129;DHT22;17777;48.770;8.944;2023-04-24T00:28:12;17.50;47.50
31129;DHT22;17777;48.770;8.944;2023-04-24T00:30:38;17.50;47.50
31129;DHT22;17777;48.770;8.944;2023-04-24T00:33:04;17.60;47.60
31129;DHT22;17777;48.770;8.944;2023-04-24T00:35:29;17.60;47.50
31129;DHT22;17777;48.770;8.944;2023-04-24T00:37:55;17.60;47.50
31129;DHT22;17777;48.770;8.944;2023-04-24T00:40:21;17.60;47.50
31129;DHT22;17777;48.770;8.944;2023-04-24T00:42:47;17.60;47.50
31129;DHT22;17777;48.770;8.944;2023-04-24T00:45:14;17.60;47.50
31129;DHT22;17777;48.770;8.944;2023-04-24T00:47:42;17.60;47.50
31129;DHT22;17777;48.770;8.944;2023-04-24T00:50:08;17.60;47.70
31129;DHT22;17777;48.770;8.944;2023-04-24T00:52:34;17.60;47.50
31129;DHT22;17777;48.770;8.944;2023-04-24T00:55:00;17.60;47.60
31129;DHT22;17777;48.770;8.944;2023-04-24T00:57:26;17.60;47.60
31129;DHT22;17777;48.770;8.944;2023-04-24T00:59:52;17.60;47.60
31129;DHT22;17777;48.770;8.944;2023-04-24T01:02:19;17.60;47.70
31129;DHT22;17777;48.770;8.944;2023-04-24T01:04:45;17.60;47.70
31129;DHT22;17777;48.770;8.944;2023-04-24T01:07:12;17.60;47.70
31129;DHT22;17777;48.770;8.944;2023-04-24T01:09:41;17.60;47.60
31129;DHT22;17777;48.770;8.944;2023-04-24T01:12:09;17.60;47.80
31129;DHT22;17777;48.770;8.944;2023-04-24T01:14:37;17.60;47.70
31129;DHT22;17777;48.770;8.944;2023-04-24T01:17:03;17.60;47.70
31129;DHT22;17777;48.770;8.944;2023-04-24T01:19:29;17.60;47.70
31129;DHT22;17777;48.770;8.944;2023-04-24T01:21:58;17.60;47.70
31129;DHT22;17777;48.770;8.944;2023-04-24T01:24:28;17.60;47.70
31129;DHT22;17777;48.770;8.944;2023-04-24T01:26:54;17.50;47.60
31129;DHT22;17777;48.770;8.944;2023-04-24T01:29:20;17.50;47.70
31129;DHT22;17777;48.770;8.944;2023-04-24T01:31:47;17.60;47.80
31129;DHT22;17777;48.770;8.944;2023-04-24T01:34:13;17.60;47.80
31129;DHT22;17777;48.770;8.944;2023-04-24T01:36:41;17.60;48.00
31129;DHT22;17777;48.770;8.944;2023-04-24T01:39:08;17.50;47.90
31129;DHT22;17777;48.770;8.944;2023-04-24T01:41:34;17.60;48.00
31129;DHT22;17777;48.770;8.944;2023-04-24T01:44:00;17.60;48.00
31129;DHT22;17777;48.770;8.944;2023-04-24T01:46:26;17.50;47.90
31129;DHT22;17777;48.770;8.944;2023-04-24T01:48:52;17.50;48.00
31129;DHT22;17777;48.770;8.944;2023-04-24T01:51:19;17.50;48.00
31129;DHT22;17777;48.770;8.944;2023-04-24T01:53:44;17.50;48.20
31129;DHT22;17777;48.770;8.944;2023-04-24T01:56:11;17.50;48.10
31129;DHT22;17777;48.770;8.944;2023-04-24T01:58:37;17.50;48.10
31129;DHT22;17777;48.770;8.944;2023-04-24T02:01:03;17.40;48.20
31129;DHT22;17777;48.770;8.944;2023-04-24T02:03:28;17.40;48.20
31129;DHT22;17777;48.770;8.944;2023-04-24T02:05:57;17.40;48.30
31129;DHT22;17777;48.770;8.944;2023-04-24T02:08:23;17.40;48.30
31129;DHT22;17777;48.770;8.944;2023-04-24T02:10:49;17.40;48.30
31129;DHT22;17777;48.770;8.944;2023-04-24T02:13:15;17.40;48.40
31129;DHT22;17777;48.770;8.944;2023-04-24T02:15:41;17.40;48.50
31129;DHT22;17777;48.770;8.944;2023-04-24T02:18:07;17.30;48.50
31129;DHT22;17777;48.770;8.944;2023-04-24T02:20:32;17.30;48.60
31129;DHT22;17777;48.770;8.944;2023-04-24T02:23:01;17.30;48.60
31129;DHT22;17777;48.770;8.944;2023-04-24T02:25:27;17.30;48.70
31129;DHT22;17777;48.770;8.944;2023-04-24T02:27:54;17.30;48.80
31129;DHT22;17777;48.770;8.944;2023-04-24T02:30:20;17.30;49.00
31129;DHT22;17777;48.770;8.944;2023-04-24T02:32:46;17.30;49.20
31129;DHT22;17777;48.770;8.944;2023-04-24T02:35:12;17.30;49.40
31129;DHT22;17777;48.770;8.944;2023-04-24T02:37:37;17.30;49.40
31129;DHT22;17777;48.770;8.944;2023-04-24T02:40:04;17.20;49.40
31129;DHT22;17777;48.770;8.944;2023-04-24T02:42:31;17.20;49.50
31129;DHT22;17777;48.770;8.944;2023-04-24T02:44:57;17.20;49.60
31129;DHT22;17777;48.770;8.944;2023-04-24T02:47:22;17.20;49.70
31129;DHT22;17777;48.770;8.944;2023-04-24T02:49:48;17.20;49.70
31129;DHT22;17777;48.770;8.944;2023-04-24T02:52:14;17.20;49.70
31129;DHT22;17777;48.770;8.944;2023-04-24T02:54:40;17.20;50.40
31129;DHT22;17777;48.770;8.944;2023-04-24T02:57:06;17.20;49.90
31129;DHT22;17777;48.770;8.944;2023-04-24T02:59:32;17.20;49.80
31129;DHT22;17777;48.770;8.944;2023-04-24T03:01:58;17.20;49.90
31129;DHT22;17777;48.770;8.944;2023-04-24T03:04:24;17.20;49.90
31129;DHT22;17777;48.770;8.944;2023-04-24T03:06:51;17.20;50.00
31129;DHT22;17777;48.770;8.944;2023-04-24T03:09:23;17.20;50.10
31129;DHT22;17777;48.770;8.944;2023-04-24T03:11:49;17.10;49.90
31129;DHT22;17777;48.770;8.944;2023-04-24T03:14:15;17.10;50.00
31129;DHT22;17777;48.770;8.944;2023-04-24T03:16:41;17.10;50.00
31129;DHT22;17777;48.770;8.944;2023-04-24T03:19:07;17.10;50.00
31129;DHT22;17777;48.770;8.944;2023-04-24T03:21:40;17.10;50.10
31129;DHT22;17777;48.770;8.944;2023-04-24T03:24:07;17.10;50.10
31129;DHT22;17777;48.770;8.944;2023-04-24T03:26:34;17.00;50.10
31129;DHT22;17777;48.770;8.944;2023-04-24T03:29:14;17.00;50.20
31129;DHT22;17777;48.770;8.944;2023-04-24T03:31:41;17.00;50.20
31129;DHT22;17777;48.770;8.944;2023-04-24T03:34:06;17.00;50.20
31129;DHT22;17777;48.770;8.944;2023-04-24T03:36:32;17.00;50.30
31129;DHT22;17777;48.770;8.944;2023-04-24T03:38:58;17.00;50.30
31129;DHT22;17777;48.770;8.944;2023-04-24T03:41:31;17.00;50.30
31129;DHT22;17777;48.770;8.944;2023-04-24T03:44:09;17.00;50.30
31129;DHT22;17777;48.770;8.944;2023-04-24T03:46:36;16.90;50.30
31129;DHT22;17777;48.770;8.944;2023-04-24T03:49:02;16.90;50.30
31129;DHT22;17777;48.770;8.944;2023-04-24T03:51:32;17.00;50.40
31129;DHT22;17777;48.770;8.944;2023-04-24T03:54:08;16.90;50.30
31129;DHT22;17777;48.770;8.944;2023-04-24T03:56:37;16.90;50.40
31129;DHT22;17777;48.770;8.944;2023-04-24T03:59:03;16.90;50.50
31129;DHT22;17777;48.770;8.944;2023-04-24T04:01:29;16.90;50.50
31129;DHT22;17777;48.770;8.944;2023-04-24T04:04:04;16.90;50.60
31129;DHT22;17777;48.770;8.944;2023-04-24T04:06:30;16.80;50.60
31129;DHT22;17777;48.770;8.944;2023-04-24T04:08:58;16.80;50.70
31129;DHT22;17777;48.770;8.944;2023-04-24T04:11:24;16.80;50.80
31129;DHT22;17777;48.770;8.944;2023-04-24T04:13:50;16.80;50.80
31129;DHT22;17777;48.770;8.944;2023-04-24T04:16:19;16.80;50.70
31129;DHT22;17777;48.770;8.944;2023-04-24T04:18:47;16.80;50.20
31129;DHT22;17777;48.770;8.944;2023-04-24T04:21:14;16.70;49.80
31129;DHT22;17777;48.770;8.944;2023-04-24T04:23:40;16.70;49.60
31129;DHT22;17777;48.770;8.944;2023-04-24T04:26:13;16.60;49.60
31129;DHT22;17777;48.770;8.944;2023-04-24T04:29:00;16.60;49.60
31129;DHT22;17777;48.770;8.944;2023-04-24T04:31:27;16.50;49.60
31129;DHT22;17777;48.770;8.944;2023-04-24T04:33:55;16.50;49.60
31129;DHT22;17777;48.770;8.944;2023-04-24T04:36:21;16.50;49.70
31129;DHT22;17777;48.770;8.944;2023-04-24T04:38:52;16.40;49.60
31129;DHT22;17777;48.770;8.944;2023-04-24T04:41:39;16.40;49.60
31129;DHT22;17777;48.770;8.944;2023-04-24T04:44:06;16.30;49.60
31129;DHT22;17777;48.770;8.944;2023-04-24T04:46:35;16.30;49.60
31129;DHT22;17777;48.770;8.944;2023-04-24T04:49:10;16.20;49.60
31129;DHT22;17777;48.770;8.944;2023-04-24T04:51:37;16.20;49.70
31129;DHT22;17777;48.770;8.944;2023-04-24T04:54:04;16.20;49.70
31129;DHT22;17777;48.770;8.944;2023-04-24T04:56:30;16.20;49.80
31129;DHT22;17777;48.770;8.944;2023-04-24T04:58:59;16.20;49.90
31129;DHT22;17777;48.770;8.944;2023-04-24T05:01:25;16.20;49.80
31129;DHT22;17777;48.770;8.944;2023-04-24T05:03:54;16.20;49.70
31129;DHT22;17777;48.770;8.944;2023-04-24T05:06:20;16.20;49.80
31129;DHT22;17777;48.770;8.944;2023-04-24T05:08:46;16.20;49.90
31129;DHT22;17777;48.770;8.944;2023-04-24T05:11:31;16.20;49.90
31129;DHT22;17777;48.770;8.944;2023-04-24T05:13:58;16.20;49.90
31129;DHT22;17777;48.770;8.944;2023-04-24T05:16:32;16.20;49.90
31129;DHT22;17777;48.770;8.944;2023-04-24T05:18:58;16.20;49.80
31129;DHT22;17777;48.770;8.944;2023-04-24T05:21:29;16.20;49.90
31129;DHT22;17777;48.770;8.944;2023-04-24T05:23:56;16.20;50.00
31129;DHT22;17777;48.770;8.944;2023-04-24T05:26:40;16.20;50.00
31129;DHT22;17777;48.770;8.944;2023-04-24T05:29:07;16.20;50.00
31129;DHT22;17777;48.770;8.944;2023-04-24T05:31:33;16.10;50.00
31129;DHT22;17777;48.770;8.944;2023-04-24T05:33:59;16.20;50.00
31129;DHT22;17777;48.770;8.944;2023-04-24T05:36:25;16.20;50.00
31129;DHT22;17777;48.770;8.944;2023-04-24T05:38:52;16.20;50.00
31129;DHT22;17777;48.770;8.944;2023-04-24T05:41:18;16.20;50.00
31129;DHT22;17777;48.770;8.944;2023-04-24T05:43:44;16.20;49.90
31129;DHT22;17777;48.770;8.944;2023-04-24T05:46:10;16.20;49.90
31129;DHT22;17777;48.770;8.944;2023-04-24T05:48:38;16.20;50.00
31129;DHT22;17777;48.770;8.944;2023-04-24T05:51:04;16.20;49.90
31129;DHT22;17777;48.770;8.944;2023-04-24T05:53:30;16.20;50.00
31129;DHT22;17777;48.770;8.944;2023-04-24T05:55:56;16.20;50.00
31129;DHT22;17777;48.770;8.944;2023-04-24T05:58:22;16.30;50.00
31129;DHT22;17777;48.770;8.944;2023-04-24T06:00:49;16.20;49.90
31129;DHT22;17777;48.770;8.944;2023-04-24T06:03:16;16.30;50.00
31129;DHT22;17777;48.770;8.944;2023-04-24T06:05:42;16.30;49.90
31129;DHT22;17777;48.770;8.944;2023-04-24T06:08:08;16.30;50.00
31129;DHT22;17777;48.770;8.944;2023-04-24T06:10:37;16.20;50.00
31129;DHT22;17777;48.770;8.944;2023-04-24T06:13:05;16.30;50.10
31129;DHT22;17777;48.770;8.944;2023-04-24T06:15:33;16.30;50.10
31129;DHT22;17777;48.770;8.944;2023-04-24T06:18:05;16.30;50.10
31129;DHT22;17777;48.770;8.944;2023-04-24T06:20:31;16.30;50.20
31129;DHT22;17777;48.770;8.944;2023-04-24T06:22:56;16.30;50.20
31129;DHT22;17777;48.770;8.944;2023-04-24T06:25:25;16.30;50.30
31129;DHT22;17777;48.770;8.944;2023-04-24T06:27:51;16.30;50.40
31129;DHT22;17777;48.770;8.944;2023-04-24T06:30:17;16.40;50.40
31129;DHT22;17777;48.770;8.944;2023-04-24T06:32:43;16.40;50.40
31129;DHT22;17777;48.770;8.944;2023-04-24T06:35:09;16.50;50.50
31129;DHT22;17777;48.770;8.944;2023-04-24T06:37:38;16.60;50.70
31129;DHT22;17777;48.770;8.944;2023-04-24T06:40:05;16.60;50.80
31129;DHT22;17777;48.770;8.944;2023-04-24T06:42:32;16.70;50.80
31129;DHT22;17777;48.770;8.944;2023-04-24T06:44:57;16.70;50.60
31129;DHT22;17777;48.770;8.944;2023-04-24T06:47:24;16.80;50.50
31129;DHT22;17777;48.770;8.944;2023-04-24T06:49:49;16.90;50.20
31129;DHT22;17777;48.770;8.944;2023-04-24T06:52:18;17.00;49.90
31129;DHT22;17777;48.770;8.944;2023-04-24T06:54:44;17.10;49.50
31129;DHT22;17777;48.770;8.944;2023-04-24T06:57:10;17.10;49.10
31129;DHT22;17777;48.770;8.944;2023-04-24T06:59:36;17.10;48.60
31129;DHT22;17777;48.770;8.944;2023-04-24T07:02:02;17.10;48.30
31129;DHT22;17777;48.770;8.944;2023-04-24T07:04:29;17.10;48.10
31129;DHT22;17777;48.770;8.944;2023-04-24T07:06:55;17.00;47.70
31129;DHT22;17777;48.770;8.944;2023-04-24T07:09:24;17.00;47.70
31129;DHT22;17777;48.770;8.944;2023-04-24T07:11:51;16.90;47.80
31129;DHT22;17777;48.770;8.944;2023-04-24T07:14:18;16.90;47.90
31129;DHT22;17777;48.770;8.944;2023-04-24T07:16:44;16.90;48.10
31129;DHT22;17777;48.770;8.944;2023-04-24T07:19:11;16.90;48.10
31129;DHT22;17777;48.770;8.944;2023-04-24T07:21:37;16.80;48.00
31129;DHT22;17777;48.770;8.944;2023-04-24T07:24:03;16.80;48.00
31129;DHT22;17777;48.770;8.944;2023-04-24T07:26:30;16.90;47.80
31129;DHT22;17777;48.770;8.944;2023-04-24T07:28:56;16.90;47.50
31129;DHT22;17777;48.770;8.944;2023-04-24T07:31:22;16.80;47.30
31129;DHT22;17777;48.770;8.944;2023-04-24T07:33:48;16.80;47.20
31129;DHT22;17777;48.770;8.944;2023-04-24T07:36:14;16.80;47.20
31129;DHT22;17777;48.770;8.944;2023-04-24T07:38:47;16.80;47.20
31129;DHT22;17777;48.770;8.944;2023-04-24T07:41:13;16.80;46.80
31129;DHT22;17777;48.770;8.944;2023-04-24T07:43:40;16.80;46.90
31129;DHT22;17777;48.770;8.944;2023-04-24T07:46:07;16.80;46.60
31129;DHT22;17777;48.770;8.944;2023-04-24T07:48:33;16.80;46.20
31129;DHT22;17777;48.770;8.944;2023-04-24T07:50:59;16.80;46.30
31129;DHT22;17777;48.770;8.944;2023-04-24T07:53:25;16.80;46.20
31129;DHT22;17777;48.770;8.944;2023-04-24T07:55:51;16.80;46.30
31129;DHT22;17777;48.770;8.944;2023-04-24T07:58:17;16.80;46.30
31129;DHT22;17777;48.770;8.944;2023-04-24T08:00:42;16.80;46.20
31129;DHT22;17777;48.770;8.944;2023-04-24T08:03:08;16.80;46.10
31129;DHT22;17777;48.770;8.944;2023-04-24T08:05:34;16.90;46.00
31129;DHT22;17777;48.770;8.944;2023-04-24T08:08:00;16.90;46.00
31129;DHT22;17777;48.770;8.944;2023-04-24T08:10:26;16.90;45.60
31129;DHT22;17777;48.770;8.944;2023-04-24T08:12:51;16.90;45.50
31129;DHT22;17777;48.770;8.944;2023-04-24T08:15:17;16.90;45.60
31129;DHT22;17777;48.770;8.944;2023-04-24T08:17:43;16.90;45.50
31129;DHT22;17777;48.770;8.944;2023-04-24T08:20:10;16.90;45.40
31129;DHT22;17777;48.770;8.944;2023-04-24T08:22:42;16.90;45.40
31129;DHT22;17777;48.770;8.944;2023-04-24T08:25:10;16.90;45.10
31129;DHT22;17777;48.770;8.944;2023-04-24T08:27:36;16.90;45.30
31129;DHT22;17777;48.770;8.944;2023-04-24T08:30:03;16.80;44.60
31129;DHT22;17777;48.770;8.944;2023-04-24T08:32:30;16.80;45.20
31129;DHT22;17777;48.770;8.944;2023-04-24T08:34:59;16.80;45.20
31129;DHT22;17777;48.770;8.944;2023-04-24T08:37:26;16.80;45.10
31129;DHT22;17777;48.770;8.944;2023-04-24T08:39:53;16.70;45.20
31129;DHT22;17777;48.770;8.944;2023-04-24T08:42:20;16.70;45.20
31129;DHT22;17777;48.770;8.944;2023-04-24T08:44:48;16.60;45.30
31129;DHT22;17777;48.770;8.944;2023-04-24T08:47:15;16.60;45.30
31129;DHT22;17777;48.770;8.944;2023-04-24T08:49:41;16.60;45.50
31129;DHT22;17777;48.770;8.944;2023-04-24T08:52:08;16.60;45.60
31129;DHT22;17777;48.770;8.944;2023-04-24T08:54:35;16.60;45.60
31129;DHT22;17777;48.770;8.944;2023-04-24T08:57:02;16.60;45.40
31129;DHT22;17777;48.770;8.944;2023-04-24T08:59:32;16.50;45.50
31129;DHT22;17777;48.770;8.944;2023-04-24T09:01:59;16.50;45.80
31129;DHT22;17777;48.770;8.944;2023-04-24T09:04:25;16.50;46.00
31129;DHT22;17777;48.770;8.944;2023-04-24T09:06:56;16.40;46.00
31129;DHT22;17777;48.770;8.944;2023-04-24T09:09:24;16.40;46.40
31129;DHT22;17777;48.770;8.944;2023-04-24T09:11:52;16.30;46.40
31129;DHT22;17777;48.770;8.944;2023-04-24T09:14:21;16.20;46.40
31129;DHT22;17777;48.770;8.944;2023-04-24T09:16:49;16.20;46.50
31129;DHT22;17777;48.770;8.944;2023-04-24T09:19:15;16.10;46.60
31129;DHT22;17777;48.770;8.944;2023-04-24T09:21:41;16.10;46.70
31129;DHT22;17777;48.770;8.944;2023-04-24T09:24:19;16.00;47.10
31129;DHT22;17777;48.770;8.944;2023-04-24T09:26:48;16.00;47.50
31129;DHT22;17777;48.770;8.944;2023-04-24T09:29:16;16.00;48.00
31129;DHT22;17777;48.770;8.944;2023-04-24T09:31:43;16.00;47.30
31129;DHT22;17777;48.770;8.944;2023-04-24T09:34:09;16.00;47.40
31129;DHT22;17777;48.770;8.944;2023-04-24T09:36:38;16.00;47.20
31129;DHT22;17777;48.770;8.944;2023-04-24T09:39:08;16.10;47.10
31129;DHT22;17777;48.770;8.944;2023-04-24T09:42:01;16.10;47.10
31129;DHT22;17777;48.770;8.944;2023-04-24T09:44:28;16.10;46.70
31129;DHT22;17777;48.770;8.944;2023-04-24T09:46:56;16.10;46.90
31129;DHT22;17777;48.770;8.944;2023-04-24T09:49:28;16.20;47.00
31129;DHT22;17777;48.770;8.944;2023-04-24T09:52:10;16.20;46.70
31129;DHT22;17777;48.770;8.944;2023-04-24T09:54:37;16.20;46.30
31129;DHT22;17777;48.770;8.944;2023-04-24T09:57:04;16.30;46.40
31129;DHT22;17777;48.770;8.944;2023-04-24T09:59:30;16.30;46.40
31129;DHT22;17777;48.770;8.944;2023-04-24T10:01:56;16.40;46.40
31129;DHT22;17777;48.770;8.944;2023-04-24T10:04:26;16.40;46.30
31129;DHT22;17777;48.770;8.944;2023-04-24T10:06:54;16.50;46.40
31129;DHT22;17777;48.770;8.944;2023-04-24T10:09:24;16.50;46.30
31129;DHT22;17777;48.770;8.944;2023-04-24T10:11:52;16.60;46.00
31129;DHT22;17777;48.770;8.944;2023-04-24T10:14:22;16.70;45.70
31129;DHT22;17777;48.770;8.944;2023-04-24T10:16:50;16.80;45.40
31129;DHT22;17777;48.770;8.944;2023-04-24T10:19:17;16.90;44.80
31129;DHT22;17777;48.770;8.944;2023-04-24T10:21:46;17.00;44.60
31129;DHT22;17777;48.770;8.944;2023-04-24T10:24:17;17.10;44.60
31129;DHT22;17777;48.770;8.944;2023-04-24T10:26:44;17.10;44.40
31129;DHT22;17777;48.770;8.944;2023-04-24T10:29:16;17.20;44.20
31129;DHT22;17777;48.770;8.944;2023-04-24T10:31:42;17.20;43.70
31129;DHT22;17777;48.770;8.944;2023-04-24T10:34:11;17.20;43.90
31129;DHT22;17777;48.770;8.944;2023-04-24T10:36:41;17.30;43.70
31129;DHT22;17777;48.770;8.944;2023-04-24T10:39:12;17.20;43.30
31129;DHT22;17777;48.770;8.944;2023-04-24T10:41:40;17.30;43.60
31129;DHT22;17777;48.770;8.944;2023-04-24T10:44:10;17.30;43.40
31129;DHT22;17777;48.770;8.944;2023-04-24T10:46:38;17.30;43.20
31129;DHT22;17777;48.770;8.944;2023-04-24T10:49:08;17.30;43.40
31129;DHT22;17777;48.770;8.944;2023-04-24T10:54:27;17.30;43.30
31129;DHT22;17777;48.770;8.944;2023-04-24T10:59:44;17.30;43.20
31129;DHT22;17777;48.770;8.944;2023-04-24T11:02:10;17.30;43.20
31129;DHT22;17777;48.770;8.944;2023-04-24T11:04:36;17.30;43.00
31129;DHT22;17777;48.770;8.944;2023-04-24T11:07:03;17.20;42.70
31129;DHT22;17777;48.770;8.944;2023-04-24T11:09:32;17.20;42.60
31129;DHT22;17777;48.770;8.944;2023-04-24T11:12:06;17.20;42.70
31129;DHT22;17777;48.770;8.944;2023-04-24T11:15:07;17.10;42.60
31129;DHT22;17777;48.770;8.944;2023-04-24T11:17:37;17.10;42.70
31129;DHT22;17777;48.770;8.944;2023-04-24T11:20:10;17.20;43.00
31129;DHT22;17777;48.770;8.944;2023-04-24T11:22:38;17.20;43.00
31129;DHT22;17777;48.770;8.944;2023-04-24T11:25:06;17.20;43.40
31129;DHT22;17777;48.770;8.944;2023-04-24T11:27:39;17.30;43.40
31129;DHT22;17777;48.770;8.944;2023-04-24T11:30:07;17.30;43.10
31129;DHT22;17777;48.770;8.944;2023-04-24T11:35:13;17.40;43.00
31129;DHT22;17777;48.770;8.944;2023-04-24T11:37:43;17.40;43.40
31129;DHT22;17777;48.770;8.944;2023-04-24T11:40:15;17.40;43.80
31129;DHT22;17777;48.770;8.944;2023-04-24T11:42:46;17.40;44.10
31129;DHT22;17777;48.770;8.944;2023-04-24T11:45:18;17.30;44.30
31129;DHT22;17777;48.770;8.944;2023-04-24T11:47:46;17.30;45.00
31129;DHT22;17777;48.770;8.944;2023-04-24T11:50:17;17.30;44.20
31129;DHT22;17777;48.770;8.944;2023-04-24T11:52:48;17.40;44.20
31129;DHT22;17777;48.770;8.944;2023-04-24T11:57:45;17.50;44.60
31129;DHT22;17777;48.770;8.944;2023-04-24T12:00:20;17.50;43.50
31129;DHT22;17777;48.770;8.944;2023-04-24T12:02:47;17.50;43.10
31129;DHT22;17777;48.770;8.944;2023-04-24T12:05:25;17.50;43.30
31129;DHT22;17777;48.770;8.944;2023-04-24T12:07:53;17.60;42.90
31129;DHT22;17777;48.770;8.944;2023-04-24T12:10:24;17.60;43.00
31129;DHT22;17777;48.770;8.944;2023-04-24T12:12:52;17.60;42.90
31129;DHT22;17777;48.770;8.944;2023-04-24T12:15:20;17.60;42.80
31129;DHT22;17777;48.770;8.944;2023-04-24T12:17:46;17.60;42.80
31129;DHT22;17777;48.770;8.944;2023-04-24T12:20:13;17.60;42.50
31129;DHT22;17777;48.770;8.944;2023-04-24T12:22:48;17.60;42.50
31129;DHT22;17777;48.770;8.944;2023-04-24T12:25:21;17.60;42.20
31129;DHT22;17777;48.770;8.944;2023-04-24T12:27:53;17.60;42.40
31129;DHT22;17777;48.770;8.944;2023-04-24T12:30:25;17.60;42.50
31129;DHT22;17777;48.770;8.944;2023-04-24T12:32:53;17.60;42.60
31129;DHT22;17777;48.770;8.944;2023-04-24T12:35:22;17.60;42.50
31129;DHT22;17777;48.770;8.944;2023-04-24T12:37:49;17.70;42.50
31129;DHT22;17777;48.770;8.944;2023-04-24T12:40:16;17.70;42.30
31129;DHT22;17777;48.770;8.944;2023-04-24T12:42:48;17.70;42.20
31129;DHT22;17777;48.770;8.944;2023-04-24T12:45:17;17.70;41.70
31129;DHT22;17777;48.770;8.944;2023-04-24T12:47:44;17.70;42.10
31129;DHT22;17777;48.770;8.944;2023-04-24T12:50:12;17.60;42.60
31129;DHT22;17777;48.770;8.944;2023-04-24T12:52:39;17.60;42.80
31129;DHT22;17777;48.770;8.944;2023-04-24T12:55:06;17.50;42.70
31129;DHT22;17777;48.770;8.944;2023-04-24T12:57:39;17.50;42.80
31129;DHT22;17777;48.770;8.944;2023-04-24T13:00:06;17.40;42.80
31129;DHT22;17777;48.770;8.944;2023-04-24T13:02:33;17.40;43.10
31129;DHT22;17777;48.770;8.944;2023-04-24T13:05:00;17.30;43.00
31129;DHT22;17777;48.770;8.944;2023-04-24T13:07:26;17.30;43.10
31129;DHT22;17777;48.770;8.944;2023-04-24T13:09:53;17.30;43.10
31129;DHT22;17777;48.770;8.944;2023-04-24T13:12:20;17.30;43.30
31129;DHT22;17777;48.770;8.944;2023-04-24T13:14:46;17.30;43.20
31129;DHT22;17777;48.770;8.944;2023-04-24T13:17:12;17.40;43.20
31129;DHT22;17777;48.770;8.944;2023-04-24T13:19:41;17.40;43.80
31129;DHT22;17777;48.770;8.944;2023-04-24T13:22:10;17.50;43.10
31129;DHT22;17777;48.770;8.944;2023-04-24T13:24:37;17.50;43.00
31129;DHT22;17777;48.770;8.944;2023-04-24T13:27:03;17.50;42.80
31129;DHT22;17777;48.770;8.944;2023-04-24T13:29:29;17.50;43.00
31129;DHT22;17777;48.770;8.944;2023-04-24T13:31:55;17.50;43.50
31129;DHT22;17777;48.770;8.944;2023-04-24T13:34:25;17.50;43.80
31129;DHT22;17777;48.770;8.944;2023-04-24T13:36:53;17.50;44.30
31129;DHT22;17777;48.770;8.944;2023-04-24T13:39:20;17.40;44.30
31129;DHT22;17777;48.770;8.944;2023-04-24T13:41:47;17.30;44.40
31129;DHT22;17777;48.770;8.944;2023-04-24T13:44:14;17.30;44.60
31129;DHT22;17777;48.770;8.944;2023-04-24T13:46:42;17.30;44.80
31129;DHT22;17777;48.770;8.944;2023-04-24T13:49:10;17.20;45.20
31129;DHT22;17777;48.770;8.944;2023-04-24T13:51:36;17.20;45.20
31129;DHT22;17777;48.770;8.944;2023-04-24T13:54:02;17.20;45.10
31129;DHT22;17777;48.770;8.944;2023-04-24T13:56:28;17.20;45.10
31129;DHT22;17777;48.770;8.944;2023-04-24T13:58:54;17.20;45.00
31129;DHT22;17777;48.770;8.944;2023-04-24T14:01:20;17.20;44.80
31129;DHT22;17777;48.770;8.944;2023-04-24T14:03:53;17.20;44.70
31129;DHT22;17777;48.770;8.944;2023-04-24T14:06:20;17.20;44.70
31129;DHT22;17777;48.770;8.944;2023-04-24T14:08:47;17.20;44.70
31129;DHT22;17777;48.770;8.944;2023-04-24T14:11:13;17.20;44.80
31129;DHT22;17777;48.770;8.944;2023-04-24T14:13:41;17.10;44.90
31129;DHT22;17777;48.770;8.944;2023-04-24T14:16:07;17.20;45.10
31129;DHT22;17777;48.770;8.944;2023-04-24T14:18:33;17.20;45.00
31129;DHT22;17777;48.770;8.944;2023-04-24T14:20:59;17.20;44.90
31129;DHT22;17777;48.770;8.944;2023-04-24T14:23:26;17.20;44.80
31129;DHT22;17777;48.770;8.944;2023-04-24T14:25:52;17.30;44.70
31129;DHT22;17777;48.770;8.944;2023-04-24T14:28:21;17.30;44.60
31129;DHT22;17777;48.770;8.944;2023-04-24T14:30:47;17.30;44.50
31129;DHT22;17777;48.770;8.944;2023-04-24T14:33:13;17.40;44.40
31129;DHT22;17777;48.770;8.944;2023-04-24T14:35:40;17.40;44.30
31129;DHT22;17777;48.770;8.944;2023-04-24T14:38:08;17.40;44.20
31129;DHT22;17777;48.770;8.944;2023-04-24T14:40:34;17.40;44.20
31129;DHT22;17777;48.770;8.944;2023-04-24T14:43:01;17.40;44.20
31129;DHT22;17777;48.770;8.944;2023-04-24T14:45:26;17.40;44.20
31129;DHT22;17777;48.770;8.944;2023-04-24T14:47:53;17.40;44.20
31129;DHT22;17777;48.770;8.944;2023-04-24T14:50:19;17.40;44.20
31129;DHT22;17777;48.770;8.944;2023-04-24T14:52:45;17.50;44.20
31129;DHT22;17777;48.770;8.944;2023-04-24T14:55:12;17.50;44.20
31129;DHT22;17777;48.770;8.944;2023-04-24T14:57:38;17.50;44.10
31129;DHT22;17777;48.770;8.944;2023-04-24T15:00:05;17.50;44.00
31129;DHT22;17777;48.770;8.944;2023-04-24T15:02:34;17.50;44.00
31129;DHT22;17777;48.770;8.944;2023-04-24T15:05:03;17.50;43.90
31129;DHT22;17777;48.770;8.944;2023-04-24T15:07:29;17.40;43.70
31129;DHT22;17777;48.770;8.944;2023-04-24T15:09:56;17.40;43.70
31129;DHT22;17777;48.770;8.944;2023-04-24T15:12:22;17.40;43.50
31129;DHT22;17777;48.770;8.944;2023-04-24T15:14:47;17.40;43.50
31129;DHT22;17777;48.770;8.944;2023-04-24T15:17:13;17.40;43.50
31129;DHT22;17777;48.770;8.944;2023-04-24T15:19:39;17.40;43.40
31129;DHT22;17777;48.770;8.944;2023-04-24T15:22:05;17.30;43.70
31129;DHT22;17777;48.770;8.944;2023-04-24T15:24:31;17.30;44.20
31129;DHT22;17777;48.770;8.944;2023-04-24T15:26:57;17.20;44.50
31129;DHT22;17777;48.770;8.944;2023-04-24T15:29:24;17.20;44.90
31129;DHT22;17777;48.770;8.944;2023-04-24T15:31:51;17.10;45.00
31129;DHT22;17777;48.770;8.944;2023-04-24T15:34:17;17.10;45.10
31129;DHT22;17777;48.770;8.944;2023-04-24T15:36:43;17.00;45.20
31129;DHT22;17777;48.770;8.944;2023-04-24T15:39:08;17.00;45.20
31129;DHT22;17777;48.770;8.944;2023-04-24T15:41:35;16.90;45.40
31129;DHT22;17777;48.770;8.944;2023-04-24T15:44:01;16.90;45.50